createdAt,value
2019-03-29T00:00:58.930Z,0.00
2019-03-29T00:01:58.690Z,0.00
2019-03-29T00:02:58.681Z,0.00
2019-03-29T00:03:58.831Z,0.00
2019-03-29T00:04:58.662Z,0.00
2019-03-29T00:05:58.648Z,0.00
2019-03-29T00:06:58.636Z,0.00
2019-03-29T00:07:58.626Z,0.00
2019-03-29T00:08:58.635Z,0.00
2019-03-29T00:09:58.598Z,0.00
2019-03-29T00:10:58.596Z,0.00
2019-03-29T00:11:58.574Z,4.00
2019-03-29T00:12:58.565Z,4.00
2019-03-29T00:13:58.649Z,4.00
2019-03-29T00:14:58.551Z,4.00
2019-03-29T00:15:59.918Z,4.00
2019-03-29T00:16:58.519Z,0.00
2019-03-29T00:17:58.517Z,0.00
2019-03-29T00:18:58.527Z,8.00
2019-03-29T00:19:58.512Z,8.00
2019-03-29T00:20:58.472Z,8.00
2019-03-29T00:21:58.472Z,4.00
2019-03-29T00:22:58.459Z,4.00
2019-03-29T00:24:06.639Z,0.00
2019-03-29T00:24:59.454Z,0.00
2019-03-29T00:25:59.110Z,0.00
2019-03-29T00:26:58.416Z,0.00
2019-03-29T00:27:58.393Z,0.00
2019-03-29T00:28:58.400Z,0.00
2019-03-29T00:29:58.409Z,0.00
2019-03-29T00:30:58.363Z,0.00
2019-03-29T00:31:58.354Z,0.00
2019-03-29T00:32:58.337Z,0.00
2019-03-29T00:33:58.343Z,0.00
2019-03-29T00:34:58.350Z,0.00
2019-03-29T00:35:58.309Z,0.00
2019-03-29T00:36:58.294Z,0.00
2019-03-29T00:37:58.281Z,0.00
2019-03-29T00:38:58.285Z,0.00
2019-03-29T00:39:58.301Z,0.00
2019-03-29T00:40:58.323Z,0.00
2019-03-29T00:41:58.243Z,0.00
2019-03-29T00:42:58.236Z,0.00
2019-03-29T00:43:58.215Z,0.00
2019-03-29T00:44:58.204Z,0.00
2019-03-29T00:45:58.233Z,0.00
2019-03-29T00:46:58.184Z,0.00
2019-03-29T00:47:58.178Z,0.00
2019-03-29T00:48:58.170Z,0.00
2019-03-29T00:49:58.151Z,0.00
2019-03-29T00:50:58.952Z,0.00
2019-03-29T00:51:58.130Z,0.00
2019-03-29T00:52:58.125Z,0.00
2019-03-29T00:53:58.111Z,0.00
2019-03-29T00:54:58.095Z,0.00
2019-03-29T00:55:58.111Z,0.00
2019-03-29T00:56:58.077Z,0.00
2019-03-29T00:57:58.080Z,0.00
2019-03-29T00:58:58.060Z,0.00
2019-03-29T00:59:58.041Z,0.00
2019-03-29T01:00:58.074Z,0.00
2019-03-29T01:01:58.024Z,0.00
2019-03-29T01:02:58.010Z,0.00
2019-03-29T01:03:57.999Z,0.00
2019-03-29T01:04:57.987Z,0.00
2019-03-29T01:05:58.012Z,0.00
2019-03-29T01:06:57.997Z,0.00
2019-03-29T01:08:07.879Z,0.00
2019-03-29T01:08:58.945Z,0.00
2019-03-29T01:09:57.940Z,0.00
2019-03-29T01:10:57.924Z,0.00
2019-03-29T01:11:57.937Z,0.00
2019-03-29T01:12:58.310Z,0.00
2019-03-29T01:13:57.882Z,0.00
2019-03-29T01:14:57.872Z,0.00
2019-03-29T01:15:57.860Z,0.00
2019-03-29T01:16:57.890Z,0.00
2019-03-29T01:17:57.841Z,0.00
2019-03-29T01:18:57.841Z,0.00
2019-03-29T01:19:57.822Z,0.00
2019-03-29T01:20:57.805Z,0.00
2019-03-29T01:21:57.883Z,0.00
2019-03-29T01:22:57.995Z,0.00
2019-03-29T01:23:57.775Z,0.00
2019-03-29T01:24:57.767Z,0.00
2019-03-29T01:25:57.759Z,0.00
2019-03-29T01:26:57.740Z,0.00
2019-03-29T01:27:57.762Z,0.00
2019-03-29T01:28:57.723Z,0.00
2019-03-29T01:29:57.715Z,0.00
2019-03-29T01:30:57.696Z,0.00
2019-03-29T01:31:57.711Z,0.00
2019-03-29T01:32:58.916Z,0.00
2019-03-29T01:33:57.670Z,0.00
2019-03-29T01:34:57.661Z,0.00
2019-03-29T01:35:57.649Z,0.00
2019-03-29T01:36:57.631Z,0.00
2019-03-29T01:37:57.644Z,0.00
2019-03-29T01:38:57.608Z,0.00
2019-03-29T01:39:57.599Z,0.00
2019-03-29T01:40:57.594Z,0.00
2019-03-29T01:41:57.577Z,0.00
2019-03-29T01:42:57.590Z,0.00
2019-03-29T01:43:57.553Z,0.00
2019-03-29T01:44:57.546Z,0.00
2019-03-29T01:45:57.532Z,0.00
2019-03-29T01:46:57.526Z,0.00
2019-03-29T01:47:57.537Z,0.00
2019-03-29T01:48:57.499Z,0.00
2019-03-29T01:49:57.499Z,0.00
2019-03-29T01:50:57.486Z,0.00
2019-03-29T01:51:57.465Z,0.00
2019-03-29T01:52:57.476Z,0.00
2019-03-29T01:53:57.452Z,0.00
2019-03-29T01:54:57.433Z,0.00
2019-03-29T01:55:57.420Z,0.00
2019-03-29T01:56:57.412Z,0.00
2019-03-29T01:57:58.315Z,0.00
2019-03-29T01:58:57.392Z,0.00
2019-03-29T01:59:57.390Z,0.00
2019-03-29T02:00:57.371Z,0.00
2019-03-29T02:01:57.358Z,0.00
2019-03-29T02:02:57.368Z,0.00
2019-03-29T02:03:57.483Z,0.00
2019-03-29T02:04:57.327Z,0.00
2019-03-29T02:05:57.316Z,0.00
2019-03-29T02:06:57.305Z,0.00
2019-03-29T02:07:57.317Z,0.00
2019-03-29T02:08:57.300Z,0.00
2019-03-29T02:09:57.307Z,0.00
2019-03-29T02:10:57.263Z,0.00
2019-03-29T02:11:57.249Z,0.00
2019-03-29T02:12:57.284Z,0.00
2019-03-29T02:13:57.257Z,0.00
2019-03-29T02:14:57.211Z,0.00
2019-03-29T02:15:57.204Z,0.00
2019-03-29T02:16:57.192Z,0.00
2019-03-29T02:17:57.183Z,0.00
2019-03-29T02:18:57.282Z,0.00
2019-03-29T02:19:58.033Z,0.00
2019-03-29T02:20:57.144Z,0.00
2019-03-29T02:21:57.140Z,0.00
2019-03-29T02:22:57.129Z,0.00
2019-03-29T02:23:57.331Z,0.00
2019-03-29T02:24:57.099Z,0.00
2019-03-29T02:25:57.096Z,0.00
2019-03-29T02:26:57.083Z,0.00
2019-03-29T02:27:57.076Z,0.00
2019-03-29T02:28:57.174Z,0.00
2019-03-29T02:29:57.045Z,0.00
2019-03-29T02:30:57.041Z,0.00
2019-03-29T02:31:57.187Z,0.00
2019-03-29T02:32:57.014Z,0.00
2019-03-29T02:33:57.043Z,0.00
2019-03-29T02:34:57.038Z,0.00
2019-03-29T02:35:56.988Z,0.00
2019-03-29T02:36:56.972Z,0.00
2019-03-29T02:37:57.068Z,0.00
2019-03-29T02:38:58.990Z,0.00
2019-03-29T02:39:56.978Z,0.00
2019-03-29T02:40:56.929Z,0.00
2019-03-29T02:41:56.920Z,0.00
2019-03-29T02:42:56.918Z,0.00
2019-03-29T02:43:56.894Z,0.00
2019-03-29T02:44:56.907Z,0.00
2019-03-29T02:45:57.839Z,0.00
2019-03-29T02:46:56.875Z,0.00
2019-03-29T02:47:56.849Z,0.00
2019-03-29T02:48:56.835Z,0.00
2019-03-29T02:49:56.855Z,0.00
2019-03-29T02:50:56.817Z,0.00
2019-03-29T02:51:56.832Z,0.00
2019-03-29T02:52:56.799Z,0.00
2019-03-29T02:53:56.780Z,0.00
2019-03-29T02:54:56.800Z,0.00
2019-03-29T02:55:56.760Z,0.00
2019-03-29T02:56:56.745Z,0.00
2019-03-29T02:57:56.745Z,0.00
2019-03-29T02:58:56.729Z,0.00
2019-03-29T02:59:56.756Z,0.00
2019-03-29T03:00:56.706Z,0.00
2019-03-29T03:01:56.698Z,0.00
2019-03-29T03:02:56.687Z,0.00
2019-03-29T03:03:56.668Z,0.00
2019-03-29T03:04:56.657Z,0.00
2019-03-29T03:05:56.667Z,0.00
2019-03-29T03:06:56.635Z,0.00
2019-03-29T03:07:56.637Z,0.00
2019-03-29T03:09:12.320Z,0.00
2019-03-29T03:09:57.600Z,0.00
2019-03-29T03:10:56.621Z,0.00
2019-03-29T03:11:56.578Z,0.00
2019-03-29T03:12:56.568Z,0.00
2019-03-29T03:13:56.563Z,0.00
2019-03-29T03:14:56.551Z,0.00
2019-03-29T03:15:56.563Z,0.00
2019-03-29T03:16:56.524Z,0.00
2019-03-29T03:17:56.523Z,0.00
2019-03-29T03:18:56.506Z,0.00
2019-03-29T03:19:56.497Z,0.00
2019-03-29T03:20:56.520Z,0.00
2019-03-29T03:21:56.467Z,0.00
2019-03-29T03:22:56.454Z,0.00
2019-03-29T03:23:56.445Z,0.00
2019-03-29T03:24:56.442Z,0.00
2019-03-29T03:25:56.449Z,0.00
2019-03-29T03:26:56.432Z,0.00
2019-03-29T03:27:56.409Z,0.00
2019-03-29T03:28:56.393Z,0.00
2019-03-29T03:29:56.381Z,0.00
2019-03-29T03:30:56.411Z,0.00
2019-03-29T03:31:56.370Z,0.00
2019-03-29T03:32:56.344Z,0.00
2019-03-29T03:33:56.333Z,0.00
2019-03-29T03:34:56.321Z,0.00
2019-03-29T03:35:56.334Z,0.00
2019-03-29T03:36:56.305Z,0.00
2019-03-29T03:37:56.287Z,0.00
2019-03-29T03:38:56.277Z,0.00
2019-03-29T03:39:56.266Z,0.00
2019-03-29T03:40:56.288Z,0.00
2019-03-29T03:41:56.244Z,0.00
2019-03-29T03:42:56.241Z,0.00
2019-03-29T03:43:56.227Z,0.00
2019-03-29T03:44:56.213Z,0.00
2019-03-29T03:45:56.221Z,0.00
2019-03-29T03:46:56.193Z,0.00
2019-03-29T03:47:56.174Z,0.00
2019-03-29T03:48:56.185Z,0.00
2019-03-29T03:50:00.484Z,0.00
2019-03-29T03:50:56.202Z,0.00
2019-03-29T03:51:56.135Z,0.00
2019-03-29T03:52:56.123Z,0.00
2019-03-29T03:53:56.116Z,0.00
2019-03-29T03:54:56.096Z,0.00
2019-03-29T03:55:56.086Z,0.00
2019-03-29T03:56:56.098Z,0.00
2019-03-29T03:57:57.949Z,0.00
2019-03-29T03:58:56.056Z,0.00
2019-03-29T03:59:56.044Z,0.00
2019-03-29T04:00:56.068Z,0.00
2019-03-29T04:01:56.044Z,0.00
2019-03-29T04:02:56.017Z,0.00
2019-03-29T04:03:56.001Z,0.00
2019-03-29T04:04:55.984Z,0.00
2019-03-29T04:05:55.997Z,0.00
2019-03-29T04:06:55.996Z,0.00
2019-03-29T04:07:55.966Z,0.00
2019-03-29T04:08:55.943Z,0.00
2019-03-29T04:09:55.957Z,0.00
2019-03-29T04:10:55.933Z,0.00
2019-03-29T04:11:56.080Z,0.00
2019-03-29T04:12:55.899Z,0.00
2019-03-29T04:13:55.889Z,0.00
2019-03-29T04:14:55.875Z,0.00
2019-03-29T04:15:55.863Z,0.00
2019-03-29T04:16:55.877Z,0.00
2019-03-29T04:17:55.879Z,0.00
2019-03-29T04:18:55.839Z,0.00
2019-03-29T04:19:55.819Z,0.00
2019-03-29T04:20:55.945Z,0.00
2019-03-29T04:21:55.796Z,0.00
2019-03-29T04:22:55.837Z,0.00
2019-03-29T04:23:55.780Z,0.00
2019-03-29T04:24:55.765Z,0.00
2019-03-29T04:25:55.774Z,0.00
2019-03-29T04:26:55.754Z,0.00
2019-03-29T04:27:55.772Z,0.00
2019-03-29T04:29:04.418Z,0.00
2019-03-29T04:29:56.704Z,0.00
2019-03-29T04:30:55.698Z,0.00
2019-03-29T04:31:55.689Z,0.00
2019-03-29T04:32:55.703Z,0.00
2019-03-29T04:33:55.664Z,0.00
2019-03-29T04:34:55.649Z,0.00
2019-03-29T04:35:55.639Z,0.00
2019-03-29T04:36:55.642Z,0.00
2019-03-29T04:37:55.639Z,0.00
2019-03-29T04:38:55.615Z,0.00
2019-03-29T04:40:07.127Z,0.00
2019-03-29T04:40:56.594Z,0.00
2019-03-29T04:41:55.575Z,0.00
2019-03-29T04:42:55.586Z,0.00
2019-03-29T04:43:55.554Z,0.00
2019-03-29T04:44:59.377Z,0.00
2019-03-29T04:45:55.548Z,0.00
2019-03-29T04:46:55.515Z,0.00
2019-03-29T04:47:55.537Z,0.00
2019-03-29T04:48:55.493Z,0.00
2019-03-29T04:49:55.491Z,0.00
2019-03-29T04:50:55.475Z,0.00
2019-03-29T04:51:55.462Z,0.00
2019-03-29T04:52:55.482Z,0.00
2019-03-29T04:53:55.468Z,0.00
2019-03-29T04:54:55.434Z,4.00
2019-03-29T04:55:55.418Z,4.00
2019-03-29T04:56:55.415Z,0.00
2019-03-29T04:57:55.392Z,0.00
2019-03-29T04:58:55.405Z,4.00
2019-03-29T04:59:55.384Z,4.00
2019-03-29T05:00:55.361Z,0.00
2019-03-29T05:01:55.351Z,4.00
2019-03-29T05:02:55.347Z,4.00
2019-03-29T05:03:55.367Z,4.00
2019-03-29T05:04:55.344Z,4.00
2019-03-29T05:05:55.307Z,8.00
2019-03-29T05:06:55.295Z,4.00
2019-03-29T05:07:55.285Z,8.00
2019-03-29T05:08:55.277Z,8.00
2019-03-29T05:09:55.267Z,8.00
2019-03-29T05:10:55.278Z,8.00
2019-03-29T05:11:55.237Z,12.00
2019-03-29T05:12:55.225Z,12.00
2019-03-29T05:13:55.260Z,8.00
2019-03-29T05:14:55.227Z,12.00
2019-03-29T05:15:55.192Z,12.00
2019-03-29T05:16:55.192Z,12.00
2019-03-29T05:17:55.171Z,16.00
2019-03-29T05:18:55.163Z,16.00
2019-03-29T05:19:55.179Z,16.00
2019-03-29T05:20:55.165Z,16.00
2019-03-29T05:21:55.133Z,24.00
2019-03-29T05:22:55.118Z,24.00
2019-03-29T05:23:55.114Z,24.00
2019-03-29T05:24:55.091Z,24.00
2019-03-29T05:25:55.109Z,28.00
2019-03-29T05:26:55.073Z,28.00
2019-03-29T05:27:55.064Z,32.00
2019-03-29T05:28:55.053Z,32.00
2019-03-29T05:29:55.040Z,32.00
2019-03-29T05:30:55.075Z,36.00
2019-03-29T05:31:55.015Z,36.00
2019-03-29T05:32:55.023Z,40.00
2019-03-29T05:33:54.992Z,40.00
2019-03-29T05:34:54.982Z,40.00
2019-03-29T05:35:55.000Z,44.00
2019-03-29T05:36:58.217Z,44.00
2019-03-29T05:37:54.948Z,48.00
2019-03-29T05:38:54.943Z,48.00
2019-03-29T05:39:54.924Z,52.00
2019-03-29T05:40:54.915Z,52.00
2019-03-29T05:41:54.926Z,56.00
2019-03-29T05:42:54.893Z,56.00
2019-03-29T05:43:54.880Z,56.00
2019-03-29T05:44:54.885Z,56.00
2019-03-29T05:45:54.891Z,64.00
2019-03-29T05:46:54.880Z,64.00
2019-03-29T05:47:54.839Z,64.00
2019-03-29T05:48:54.824Z,64.00
2019-03-29T05:49:54.813Z,68.00
2019-03-29T05:50:54.802Z,68.00
2019-03-29T05:51:54.820Z,68.00
2019-03-29T05:52:54.782Z,76.00
2019-03-29T05:53:54.774Z,76.00
2019-03-29T05:54:54.764Z,76.00
2019-03-29T05:55:54.750Z,76.00
2019-03-29T05:56:54.762Z,80.00
2019-03-29T05:57:54.731Z,80.00
2019-03-29T05:58:54.714Z,84.00
2019-03-29T05:59:54.704Z,84.00
2019-03-29T06:00:54.700Z,84.00
2019-03-29T06:01:54.722Z,88.00
2019-03-29T06:02:54.681Z,88.00
2019-03-29T06:03:54.662Z,88.00
2019-03-29T06:04:54.649Z,92.00
2019-03-29T06:05:54.635Z,92.00
2019-03-29T06:06:54.663Z,96.00
2019-03-29T06:07:54.614Z,96.00
2019-03-29T06:08:54.603Z,96.00
2019-03-29T06:09:54.592Z,100.00
2019-03-29T06:10:54.581Z,104.00
2019-03-29T06:11:54.578Z,104.00
2019-03-29T06:12:54.595Z,104.00
2019-03-29T06:13:54.558Z,108.00
2019-03-29T06:14:54.535Z,108.00
2019-03-29T06:15:54.525Z,108.00
2019-03-29T06:16:54.519Z,112.00
2019-03-29T06:17:54.573Z,112.00
2019-03-29T06:18:54.498Z,112.00
2019-03-29T06:19:54.486Z,116.00
2019-03-29T06:20:54.468Z,116.00
2019-03-29T06:21:54.462Z,116.00
2019-03-29T06:22:54.469Z,120.00
2019-03-29T06:23:54.436Z,120.00
2019-03-29T06:24:54.428Z,124.00
2019-03-29T06:25:54.420Z,124.00
2019-03-29T06:26:54.411Z,124.00
2019-03-29T06:27:54.419Z,128.00
2019-03-29T06:28:54.383Z,128.00
2019-03-29T06:29:54.368Z,132.00
2019-03-29T06:30:54.358Z,132.00
2019-03-29T06:31:54.348Z,128.00
2019-03-29T06:32:54.387Z,132.00
2019-03-29T06:33:54.330Z,132.00
2019-03-29T06:34:54.314Z,136.00
2019-03-29T06:35:54.306Z,136.00
2019-03-29T06:36:54.291Z,136.00
2019-03-29T06:37:54.313Z,140.00
2019-03-29T06:38:54.307Z,140.00
2019-03-29T06:39:54.260Z,144.00
2019-03-29T06:41:02.938Z,148.00
2019-03-29T06:41:55.244Z,148.00
2019-03-29T06:42:54.260Z,148.00
2019-03-29T06:43:54.213Z,148.00
2019-03-29T06:44:54.226Z,152.00
2019-03-29T06:45:54.192Z,152.00
2019-03-29T06:46:54.186Z,152.00
2019-03-29T06:47:54.182Z,152.00
2019-03-29T06:48:54.186Z,152.00
2019-03-29T06:49:54.155Z,152.00
2019-03-29T06:50:54.148Z,160.00
2019-03-29T06:51:54.127Z,160.00
2019-03-29T06:52:54.114Z,164.00
2019-03-29T06:53:54.164Z,164.00
2019-03-29T06:54:54.090Z,164.00
2019-03-29T06:55:54.093Z,164.00
2019-03-29T06:56:54.066Z,168.00
2019-03-29T06:57:54.060Z,168.00
2019-03-29T06:58:54.087Z,168.00
2019-03-29T06:59:54.034Z,168.00
2019-03-29T07:00:54.025Z,172.00
2019-03-29T07:01:54.016Z,172.00
2019-03-29T07:02:54.027Z,176.00
2019-03-29T07:03:54.011Z,180.00
2019-03-29T07:04:53.992Z,180.00
2019-03-29T07:05:53.981Z,180.00
2019-03-29T07:06:53.968Z,180.00
2019-03-29T07:07:53.954Z,184.00
2019-03-29T07:08:53.983Z,184.00
2019-03-29T07:09:53.935Z,188.00
2019-03-29T07:10:53.915Z,188.00
2019-03-29T07:11:53.904Z,188.00
2019-03-29T07:12:56.461Z,188.00
2019-03-29T07:13:57.734Z,188.00
2019-03-29T07:14:53.867Z,192.00
2019-03-29T07:15:53.854Z,192.00
2019-03-29T07:16:53.848Z,196.00
2019-03-29T07:17:53.839Z,196.00
2019-03-29T07:18:53.900Z,200.00
2019-03-29T07:19:53.816Z,200.00
2019-03-29T07:20:53.876Z,204.00
2019-03-29T07:21:53.796Z,204.00
2019-03-29T07:22:53.788Z,204.00
2019-03-29T07:23:53.765Z,204.00
2019-03-29T07:24:53.788Z,208.00
2019-03-29T07:25:56.327Z,212.00
2019-03-29T07:26:53.732Z,212.00
2019-03-29T07:27:53.736Z,212.00
2019-03-29T07:28:53.714Z,216.00
2019-03-29T07:29:53.720Z,216.00
2019-03-29T07:30:53.695Z,220.00
2019-03-29T07:31:53.678Z,224.00
2019-03-29T07:32:53.675Z,224.00
2019-03-29T07:33:53.657Z,228.00
2019-03-29T07:34:53.768Z,224.00
2019-03-29T07:35:53.644Z,228.00
2019-03-29T07:36:53.627Z,228.00
2019-03-29T07:37:53.614Z,232.00
2019-03-29T07:38:53.599Z,236.00
2019-03-29T07:39:54.042Z,236.00
2019-03-29T07:40:53.581Z,236.00
2019-03-29T07:41:53.573Z,240.00
2019-03-29T07:42:53.558Z,244.00
2019-03-29T07:43:53.543Z,244.00
2019-03-29T07:44:53.571Z,244.00
2019-03-29T07:45:53.553Z,248.00
2019-03-29T07:46:53.526Z,248.00
2019-03-29T07:47:53.503Z,248.00
2019-03-29T07:48:53.491Z,252.00
2019-03-29T07:49:53.479Z,256.00
2019-03-29T07:50:53.493Z,256.00
2019-03-29T07:51:53.466Z,260.00
2019-03-29T07:52:53.446Z,260.00
2019-03-29T07:53:53.435Z,264.00
2019-03-29T07:54:53.421Z,264.00
2019-03-29T07:55:53.432Z,264.00
2019-03-29T07:56:53.477Z,272.00
2019-03-29T07:57:53.387Z,272.00
2019-03-29T07:58:53.380Z,272.00
2019-03-29T07:59:53.366Z,276.00
2019-03-29T08:00:53.391Z,280.00
2019-03-29T08:01:53.361Z,284.00
2019-03-29T08:02:53.346Z,288.00
2019-03-29T08:03:53.590Z,288.00
2019-03-29T08:04:53.328Z,288.00
2019-03-29T08:05:53.335Z,292.00
2019-03-29T08:06:53.290Z,296.00
2019-03-29T08:07:53.291Z,300.00
2019-03-29T08:08:53.270Z,300.00
2019-03-29T08:09:53.996Z,304.00
2019-03-29T08:10:53.977Z,308.00
2019-03-29T08:11:53.283Z,308.00
2019-03-29T08:12:53.226Z,316.00
2019-03-29T08:13:53.214Z,316.00
2019-03-29T08:14:53.201Z,320.00
2019-03-29T08:15:53.194Z,320.00
2019-03-29T08:16:53.202Z,328.00
2019-03-29T08:17:53.186Z,328.00
2019-03-29T08:18:53.161Z,332.00
2019-03-29T08:20:13.396Z,332.00
2019-03-29T08:20:54.138Z,336.00
2019-03-29T08:21:53.151Z,336.00
2019-03-29T08:22:53.325Z,344.00
2019-03-29T08:23:53.103Z,348.00
2019-03-29T08:24:53.097Z,352.00
2019-03-29T08:25:53.080Z,352.00
2019-03-29T08:26:53.100Z,356.00
2019-03-29T08:27:53.061Z,360.00
2019-03-29T08:28:53.057Z,360.00
2019-03-29T08:29:53.042Z,364.00
2019-03-29T08:30:53.027Z,368.00
2019-03-29T08:31:55.503Z,376.00
2019-03-29T08:32:53.010Z,380.00
2019-03-29T08:33:52.989Z,380.00
2019-03-29T08:34:52.980Z,392.00
2019-03-29T08:35:52.966Z,388.00
2019-03-29T08:36:52.985Z,392.00
2019-03-29T08:37:52.947Z,396.00
2019-03-29T08:38:52.932Z,400.00
2019-03-29T08:39:56.227Z,408.00
2019-03-29T08:40:52.913Z,412.00
2019-03-29T08:41:59.981Z,416.00
2019-03-29T08:42:53.919Z,420.00
2019-03-29T08:43:52.894Z,428.00
2019-03-29T08:44:52.869Z,432.00
2019-03-29T08:45:52.858Z,432.00
2019-03-29T08:46:52.846Z,436.00
2019-03-29T08:47:52.856Z,444.00
2019-03-29T08:48:52.834Z,448.00
2019-03-29T08:49:52.811Z,460.00
2019-03-29T08:50:52.801Z,468.00
2019-03-29T08:51:52.786Z,476.00
2019-03-29T08:52:52.799Z,480.00
2019-03-29T08:53:52.777Z,484.00
2019-03-29T08:54:52.755Z,492.00
2019-03-29T08:55:52.741Z,500.00
2019-03-29T08:56:52.736Z,508.00
2019-03-29T08:57:52.746Z,512.00
2019-03-29T08:58:52.709Z,516.00
2019-03-29T08:59:52.701Z,520.00
2019-03-29T09:00:52.689Z,520.00
2019-03-29T09:01:52.678Z,516.00
2019-03-29T09:02:52.688Z,516.00
2019-03-29T09:04:04.564Z,512.00
2019-03-29T09:04:53.642Z,516.00
2019-03-29T09:05:52.627Z,508.00
2019-03-29T09:06:54.124Z,508.00
2019-03-29T09:07:52.640Z,512.00
2019-03-29T09:08:52.601Z,516.00
2019-03-29T09:09:52.581Z,520.00
2019-03-29T09:10:52.570Z,528.00
2019-03-29T09:11:52.561Z,536.00
2019-03-29T09:12:52.581Z,540.00
2019-03-29T09:13:52.590Z,548.00
2019-03-29T09:14:52.525Z,556.00
2019-03-29T09:15:52.528Z,564.00
2019-03-29T09:16:52.513Z,572.00
2019-03-29T09:17:52.516Z,584.00
2019-03-29T09:18:52.503Z,588.00
2019-03-29T09:19:52.477Z,596.00
2019-03-29T09:20:52.458Z,612.00
2019-03-29T09:21:52.459Z,620.00
2019-03-29T09:22:52.458Z,632.00
2019-03-29T09:23:52.456Z,644.00
2019-03-29T09:24:52.416Z,656.00
2019-03-29T09:25:52.402Z,668.00
2019-03-29T09:26:52.398Z,684.00
2019-03-29T09:27:52.383Z,692.00
2019-03-29T09:28:52.412Z,704.00
2019-03-29T09:29:52.361Z,712.00
2019-03-29T09:30:52.346Z,716.00
2019-03-29T09:31:52.340Z,724.00
2019-03-29T09:32:52.330Z,728.00
2019-03-29T09:33:52.350Z,736.00
2019-03-29T09:34:52.305Z,744.00
2019-03-29T09:35:52.290Z,744.00
2019-03-29T09:36:52.286Z,752.00
2019-03-29T09:37:52.274Z,756.00
2019-03-29T09:38:52.294Z,760.00
2019-03-29T09:39:52.245Z,764.00
2019-03-29T09:40:58.881Z,768.00
2019-03-29T09:41:53.233Z,772.00
2019-03-29T09:43:06.183Z,772.00
2019-03-29T09:43:54.485Z,780.00
2019-03-29T09:44:52.226Z,784.00
2019-03-29T09:45:52.183Z,792.00
2019-03-29T09:46:52.172Z,792.00
2019-03-29T09:47:52.161Z,800.00
2019-03-29T09:48:52.145Z,800.00
2019-03-29T09:49:52.158Z,804.00
2019-03-29T09:50:52.123Z,808.00
2019-03-29T09:51:52.118Z,816.00
2019-03-29T09:52:52.106Z,816.00
2019-03-29T09:53:52.098Z,824.00
2019-03-29T09:54:54.020Z,828.00
2019-03-29T09:55:53.503Z,836.00
2019-03-29T09:56:52.057Z,840.00
2019-03-29T09:57:52.057Z,844.00
2019-03-29T09:58:52.033Z,848.00
2019-03-29T09:59:52.055Z,856.00
2019-03-29T10:00:52.028Z,864.00
2019-03-29T10:01:54.049Z,868.00
2019-03-29T10:02:52.024Z,864.00
2019-03-29T10:03:51.987Z,876.00
2019-03-29T10:04:51.993Z,884.00
2019-03-29T10:05:51.982Z,896.00
2019-03-29T10:06:51.948Z,912.00
2019-03-29T10:07:51.936Z,920.00
2019-03-29T10:08:53.503Z,932.00
2019-03-29T10:09:51.966Z,940.00
2019-03-29T10:10:51.908Z,952.00
2019-03-29T10:11:51.902Z,968.00
2019-03-29T10:12:51.879Z,980.00
2019-03-29T10:13:51.881Z,984.00
2019-03-29T10:14:51.858Z,988.00
2019-03-29T10:15:51.886Z,1004.00
2019-03-29T10:16:51.838Z,1020.00
2019-03-29T10:17:51.831Z,1024.00
2019-03-29T10:18:51.842Z,1040.00
2019-03-29T10:19:51.801Z,1064.00
2019-03-29T10:20:51.817Z,1084.00
2019-03-29T10:21:51.796Z,1128.00
2019-03-29T10:22:51.769Z,1148.00
2019-03-29T10:23:51.769Z,1184.00
2019-03-29T10:24:51.750Z,1212.00
2019-03-29T10:25:51.767Z,1232.00
2019-03-29T10:26:51.728Z,1236.00
2019-03-29T10:27:51.724Z,1232.00
2019-03-29T10:28:51.703Z,1248.00
2019-03-29T10:29:51.690Z,1252.00
2019-03-29T10:30:51.708Z,1156.00
2019-03-29T10:31:51.674Z,1212.00
2019-03-29T10:32:51.660Z,1124.00
2019-03-29T10:33:51.646Z,1124.00
2019-03-29T10:34:51.656Z,1172.00
2019-03-29T10:35:52.936Z,1112.00
2019-03-29T10:36:51.615Z,980.00
2019-03-29T10:37:51.601Z,1028.00
2019-03-29T10:38:51.590Z,1276.00
2019-03-29T10:39:51.587Z,1316.00
2019-03-29T10:40:51.608Z,1368.00
2019-03-29T10:41:51.558Z,1320.00
2019-03-29T10:42:57.753Z,1256.00
2019-03-29T10:43:52.550Z,1248.00
2019-03-29T10:44:51.527Z,1244.00
2019-03-29T10:45:51.544Z,1248.00
2019-03-29T10:46:51.508Z,1324.00
2019-03-29T10:47:51.494Z,1356.00
2019-03-29T10:48:51.554Z,1144.00
2019-03-29T10:49:51.474Z,1052.00
2019-03-29T10:50:51.483Z,1000.00
2019-03-29T10:51:51.527Z,984.00
2019-03-29T10:52:51.439Z,1236.00
2019-03-29T10:53:51.436Z,1276.00
2019-03-29T10:54:51.428Z,1220.00
2019-03-29T10:55:51.404Z,1060.00
2019-03-29T10:56:51.414Z,1004.00
2019-03-29T10:57:51.380Z,1216.00
2019-03-29T10:58:51.373Z,1228.00
2019-03-29T10:59:51.355Z,1200.00
2019-03-29T11:00:51.352Z,1204.00
2019-03-29T11:01:51.361Z,1216.00
2019-03-29T11:02:51.328Z,1200.00
2019-03-29T11:03:51.331Z,1196.00
2019-03-29T11:04:51.308Z,1192.00
2019-03-29T11:05:51.301Z,1192.00
2019-03-29T11:06:51.314Z,1192.00
2019-03-29T11:07:51.280Z,1192.00
2019-03-29T11:08:51.260Z,1188.00
2019-03-29T11:09:51.254Z,1188.00
2019-03-29T11:10:51.246Z,1188.00
2019-03-29T11:11:51.247Z,1204.00
2019-03-29T11:12:51.227Z,1204.00
2019-03-29T11:13:51.204Z,1212.00
2019-03-29T11:14:51.194Z,1212.00
2019-03-29T11:15:51.179Z,1216.00
2019-03-29T11:16:51.213Z,1236.00
2019-03-29T11:17:51.166Z,1232.00
2019-03-29T11:18:51.153Z,1224.00
2019-03-29T11:19:51.134Z,1208.00
2019-03-29T11:20:51.123Z,1220.00
2019-03-29T11:21:51.117Z,1224.00
2019-03-29T11:22:51.126Z,1220.00
2019-03-29T11:23:51.125Z,1208.00
2019-03-29T11:24:51.089Z,1204.00
2019-03-29T11:25:51.072Z,1208.00
2019-03-29T11:26:51.092Z,1204.00
2019-03-29T11:27:51.050Z,1212.00
2019-03-29T11:28:51.036Z,1216.00
2019-03-29T11:29:51.029Z,1220.00
2019-03-29T11:30:51.012Z,1220.00
2019-03-29T11:31:51.043Z,1216.00
2019-03-29T11:32:51.130Z,1220.00
2019-03-29T11:33:51.001Z,1204.00
2019-03-29T11:34:50.975Z,1192.00
2019-03-29T11:35:50.982Z,1196.00
2019-03-29T11:36:52.661Z,1208.00
2019-03-29T11:37:50.969Z,1204.00
2019-03-29T11:38:50.923Z,1204.00
2019-03-29T11:39:50.912Z,1208.00
2019-03-29T11:40:50.906Z,1204.00
2019-03-29T11:41:50.904Z,1200.00
2019-03-29T11:42:50.915Z,1196.00
2019-03-29T11:43:50.876Z,1208.00
2019-03-29T11:44:50.869Z,1216.00
2019-03-29T11:45:50.850Z,1212.00
2019-03-29T11:46:50.849Z,1212.00
2019-03-29T11:47:50.855Z,1216.00
2019-03-29T11:48:50.817Z,1212.00
2019-03-29T11:49:52.931Z,1204.00
2019-03-29T11:50:50.793Z,1200.00
2019-03-29T11:51:50.783Z,1204.00
2019-03-29T11:52:50.809Z,1208.00
2019-03-29T11:53:51.264Z,1228.00
2019-03-29T11:54:50.749Z,1228.00
2019-03-29T11:55:50.746Z,1232.00
2019-03-29T11:56:50.727Z,1236.00
2019-03-29T11:57:50.716Z,1224.00
2019-03-29T11:58:50.742Z,1212.00
2019-03-29T11:59:50.715Z,1204.00
2019-03-29T12:00:50.688Z,1204.00
2019-03-29T12:01:50.681Z,1192.00
2019-03-29T12:02:50.662Z,1184.00
2019-03-29T12:03:50.689Z,1176.00
2019-03-29T12:04:50.660Z,1164.00
2019-03-29T12:05:50.632Z,1172.00
2019-03-29T12:06:50.621Z,1164.00
2019-03-29T12:07:50.621Z,1156.00
2019-03-29T12:08:50.621Z,1152.00
2019-03-29T12:09:50.655Z,1156.00
2019-03-29T12:10:50.578Z,1152.00
2019-03-29T12:11:50.563Z,1156.00
2019-03-29T12:12:50.551Z,1156.00
2019-03-29T12:13:50.578Z,1152.00
2019-03-29T12:14:50.535Z,1152.00
2019-03-29T12:15:50.526Z,1156.00
2019-03-29T12:16:50.507Z,1164.00
2019-03-29T12:17:50.520Z,1164.00
2019-03-29T12:18:50.505Z,1164.00
2019-03-29T12:19:50.489Z,1160.00
2019-03-29T12:20:50.464Z,1152.00
2019-03-29T12:21:50.449Z,1156.00
2019-03-29T12:22:50.448Z,1156.00
2019-03-29T12:23:50.469Z,1148.00
2019-03-29T12:24:50.417Z,1144.00
2019-03-29T12:25:50.412Z,1136.00
2019-03-29T12:26:50.395Z,1140.00
2019-03-29T12:27:50.411Z,1140.00
2019-03-29T12:28:50.373Z,1144.00
2019-03-29T12:29:50.403Z,1140.00
2019-03-29T12:30:50.350Z,1128.00
2019-03-29T12:31:50.338Z,1124.00
2019-03-29T12:32:50.332Z,1108.00
2019-03-29T12:33:50.336Z,1104.00
2019-03-29T12:34:50.360Z,1108.00
2019-03-29T12:35:50.300Z,1104.00
2019-03-29T12:36:50.288Z,1100.00
2019-03-29T12:37:50.277Z,1100.00
2019-03-29T12:38:50.261Z,1096.00
2019-03-29T12:39:50.301Z,1088.00
2019-03-29T12:40:50.249Z,1088.00
2019-03-29T12:41:50.237Z,1080.00
2019-03-29T12:42:50.222Z,1076.00
2019-03-29T12:43:55.796Z,1060.00
2019-03-29T12:44:51.221Z,1060.00
2019-03-29T12:45:50.183Z,1056.00